createdAt,value
2023-04-18T00:02:30.683Z,1.58
2023-04-18T00:05:25.018Z,4.57
2023-04-18T00:08:19.262Z,1.05
2023-04-18T00:11:13.546Z,2.53
2023-04-18T00:14:07.708Z,3.45
2023-04-18T00:17:03.675Z,2.75
2023-04-18T00:19:59.483Z,2.17
2023-04-18T00:22:54.571Z,3.67
2023-04-18T00:25:49.259Z,1.70
2023-04-18T00:28:43.511Z,3.42
2023-04-18T00:31:37.879Z,2.33
2023-04-18T00:34:32.194Z,1.58
2023-04-18T00:37:26.385Z,4.03
2023-04-18T00:40:20.598Z,3.42
2023-04-18T00:43:18.631Z,5.55
2023-04-18T00:46:12.829Z,1.75
2023-04-18T00:49:07.059Z,5.22
2023-04-18T00:52:01.877Z,3.55
2023-04-18T00:54:56.842Z,2.47
2023-04-18T00:57:51.185Z,2.30
2023-04-18T01:00:45.944Z,5.15
2023-04-18T01:03:40.880Z,1.40
2023-04-18T01:06:35.395Z,2.50
2023-04-18T01:09:29.905Z,1.48
2023-04-18T01:12:24.012Z,3.15
2023-04-18T01:15:18.208Z,2.58
2023-04-18T01:18:13.019Z,2.20
2023-04-18T01:21:07.792Z,4.45
2023-04-18T01:24:22.801Z,2.78
2023-04-18T01:27:16.991Z,1.23
2023-04-18T01:30:11.848Z,3.05
2023-04-18T01:33:07.454Z,1.35
2023-04-18T01:36:01.793Z,1.70
2023-04-18T01:38:56.048Z,0.60
2023-04-18T01:41:50.184Z,1.65
2023-04-18T01:44:44.478Z,1.98
2023-04-18T01:47:38.632Z,2.42
2023-04-18T01:50:33.084Z,7.97
2023-04-18T01:53:27.174Z,2.10
2023-04-18T01:56:22.193Z,1.67
2023-04-18T01:59:16.351Z,4.32
2023-04-18T02:02:12.372Z,2.70
2023-04-18T02:05:06.840Z,2.28
2023-04-18T02:08:01.028Z,1.77
2023-04-18T02:10:55.218Z,1.75
2023-04-18T02:13:49.903Z,2.15
2023-04-18T02:16:44.122Z,1.85
2023-04-18T02:19:38.481Z,2.83
2023-04-18T02:22:32.700Z,2.35
2023-04-18T02:25:28.859Z,3.63
2023-04-18T02:28:23.002Z,3.05
2023-04-18T02:31:17.456Z,1.35
2023-04-18T02:34:12.044Z,2.03
2023-04-18T02:37:06.641Z,2.90
2023-04-18T02:40:00.723Z,1.92
2023-04-18T02:42:54.919Z,2.75
2023-04-18T02:45:49.216Z,5.18
2023-04-18T02:48:43.449Z,2.63
2023-04-18T02:51:37.619Z,2.13
2023-04-18T02:54:31.723Z,1.55
2023-04-18T02:57:25.921Z,1.33
2023-04-18T03:00:20.920Z,1.20
2023-04-18T03:03:15.082Z,1.45
2023-04-18T03:06:09.322Z,1.85
2023-04-18T03:09:04.532Z,1.15
2023-04-18T03:11:58.727Z,0.85
2023-04-18T03:14:52.974Z,1.50
2023-04-18T03:17:47.160Z,1.30
2023-04-18T03:20:42.128Z,1.77
2023-04-18T03:23:36.309Z,1.15
2023-04-18T03:26:30.649Z,1.58
2023-04-18T03:29:24.783Z,0.50
2023-04-18T03:32:19.634Z,2.72
2023-04-18T03:35:13.958Z,0.77
2023-04-18T03:38:08.200Z,0.80
2023-04-18T03:41:02.410Z,2.35
2023-04-18T03:43:56.526Z,1.50
2023-04-18T03:46:50.725Z,2.50
2023-04-18T03:49:44.992Z,1.40
2023-04-18T03:52:39.171Z,0.93
2023-04-18T03:55:33.500Z,1.20
2023-04-18T03:58:27.606Z,2.25
2023-04-18T04:01:21.966Z,2.10
2023-04-18T04:04:16.681Z,0.80
2023-04-18T04:07:11.031Z,1.05
2023-04-18T04:10:05.354Z,1.67
2023-04-18T04:12:59.529Z,3.35
2023-04-18T04:15:54.427Z,1.10
2023-04-18T04:18:48.603Z,0.63
2023-04-18T04:21:43.358Z,1.25
2023-04-18T04:24:39.750Z,0.40
2023-04-18T04:27:35.245Z,1.75
2023-04-18T04:30:29.887Z,1.90
2023-04-18T04:33:29.841Z,2.47
2023-04-18T04:36:25.872Z,1.00
2023-04-18T04:39:20.023Z,0.63
2023-04-18T04:42:14.629Z,0.40
2023-04-18T04:45:10.727Z,1.27
2023-04-18T04:48:05.125Z,2.05
2023-04-18T04:51:00.925Z,3.65
2023-04-18T04:53:55.121Z,1.02
2023-04-18T04:56:49.478Z,1.27
2023-04-18T04:59:43.784Z,1.45
2023-04-18T05:02:38.200Z,2.47
2023-04-18T05:05:32.772Z,0.57
2023-04-18T05:08:27.483Z,0.85
2023-04-18T05:11:22.256Z,1.33
2023-04-18T05:14:16.916Z,1.65
2023-04-18T05:17:11.103Z,1.48
2023-04-18T05:20:06.117Z,0.98
2023-04-18T05:23:00.257Z,1.45
2023-04-18T05:25:54.980Z,0.65
2023-04-18T05:28:49.471Z,0.77
2023-04-18T05:31:43.688Z,1.10
2023-04-18T05:34:38.915Z,0.60
2023-04-18T05:37:33.216Z,1.27
2023-04-18T05:40:28.682Z,1.70
2023-04-18T05:43:23.148Z,3.25
2023-04-18T05:46:17.338Z,0.52
2023-04-18T05:49:11.601Z,1.20
2023-04-18T05:52:05.971Z,3.15
2023-04-18T05:55:00.167Z,0.73
2023-04-18T05:57:54.353Z,1.33
2023-04-18T06:00:49.486Z,1.90
2023-04-18T06:03:43.901Z,0.80
2023-04-18T06:06:38.504Z,2.17
2023-04-18T06:09:32.706Z,1.52
2023-04-18T06:12:27.139Z,1.85
2023-04-18T06:15:21.392Z,1.85
2023-04-18T06:18:15.597Z,1.90
2023-04-18T06:21:09.895Z,1.02
2023-04-18T06:24:04.116Z,1.15
2023-04-18T06:26:58.692Z,2.28
2023-04-18T06:29:52.926Z,1.52
2023-04-18T06:32:47.140Z,1.38
2023-04-18T06:35:41.536Z,1.90
2023-04-18T06:38:36.098Z,1.33
2023-04-18T06:41:30.272Z,1.45
2023-04-18T06:44:24.461Z,1.30
2023-04-18T06:47:18.926Z,0.95
2023-04-18T06:50:13.155Z,1.35
2023-04-18T06:53:07.375Z,1.88
2023-04-18T06:56:01.770Z,1.23
2023-04-18T06:58:55.969Z,0.93
2023-04-18T07:01:50.246Z,1.55
2023-04-18T07:04:44.637Z,2.35
2023-04-18T07:07:39.055Z,2.58
2023-04-18T07:10:33.628Z,0.65
2023-04-18T07:13:27.765Z,2.38
2023-04-18T07:16:22.670Z,1.52
2023-04-18T07:19:16.811Z,1.10
2023-04-18T07:22:11.252Z,3.20
2023-04-18T07:25:05.688Z,1.10
2023-04-18T07:28:00.120Z,1.98
2023-04-18T07:30:54.490Z,3.33
2023-04-18T07:33:48.860Z,2.08
2023-04-18T07:36:43.472Z,0.70
2023-04-18T07:39:37.687Z,2.92
2023-04-18T07:42:31.873Z,2.92
2023-04-18T07:45:26.064Z,4.65
2023-04-18T07:48:23.126Z,3.60
2023-04-18T07:51:17.493Z,1.00
2023-04-18T07:54:12.365Z,3.58
2023-04-18T07:57:06.749Z,1.73
2023-04-18T08:00:01.050Z,2.28
2023-04-18T08:02:55.478Z,0.75
2023-04-18T08:05:50.291Z,1.92
2023-04-18T08:08:44.848Z,3.22
2023-04-18T08:11:40.154Z,5.20
2023-04-18T08:14:34.498Z,3.53
2023-04-18T08:17:28.691Z,3.45
2023-04-18T08:20:23.204Z,3.10
2023-04-18T08:23:17.400Z,4.63
2023-04-18T08:26:11.641Z,3.90
2023-04-18T08:29:05.772Z,3.00
2023-04-18T08:32:00.304Z,3.45
2023-04-18T08:34:54.575Z,4.03
2023-04-18T08:37:48.865Z,4.78
2023-04-18T08:40:44.540Z,4.65
2023-04-18T08:43:39.921Z,4.03
2023-04-18T08:46:38.413Z,3.45
2023-04-18T08:49:33.308Z,3.60
2023-04-18T08:52:30.800Z,3.03
2023-04-18T08:55:25.087Z,4.53
2023-04-18T08:58:26.705Z,2.08
2023-04-18T09:01:21.050Z,3.30
2023-04-18T09:04:42.139Z,1.92
2023-04-18T09:07:36.353Z,4.15
2023-04-18T09:10:35.739Z,3.35
2023-04-18T09:13:42.329Z,3.17
2023-04-18T09:16:51.625Z,5.03
2023-04-18T09:19:55.624Z,2.45
2023-04-18T09:22:52.511Z,3.55
2023-04-18T09:25:49.342Z,4.68
2023-04-18T09:28:43.600Z,2.67
2023-04-18T09:31:52.718Z,2.38
2023-04-18T09:34:47.921Z,5.47
2023-04-18T09:37:52.657Z,3.92
2023-04-18T09:40:46.907Z,4.97
2023-04-18T09:43:42.187Z,2.40
2023-04-18T09:46:36.551Z,2.60
2023-04-18T09:49:31.278Z,2.65
2023-04-18T09:52:29.835Z,3.60
2023-04-18T09:55:24.431Z,2.13
2023-04-18T09:58:23.385Z,3.40
2023-04-18T10:01:18.043Z,4.25
2023-04-18T10:04:15.555Z,2.53
2023-04-18T10:07:10.238Z,2.97
2023-04-18T10:10:04.566Z,2.00
2023-04-18T10:13:01.676Z,1.70
2023-04-18T10:15:56.470Z,5.50
2023-04-18T10:18:52.516Z,2.05
2023-04-18T10:22:00.312Z,1.23
2023-04-18T10:27:51.683Z,5.30
2023-04-18T10:30:48.962Z,6.47
2023-04-18T10:37:08.624Z,4.15
2023-04-18T10:40:10.880Z,6.40
2023-04-18T10:43:05.575Z,2.60
2023-04-18T10:46:27.935Z,3.42
2023-04-18T10:49:30.285Z,5.63
2023-04-18T10:52:26.686Z,3.17
2023-04-18T10:55:30.342Z,3.13
2023-04-18T10:58:24.891Z,5.45
2023-04-18T11:01:33.941Z,4.53
2023-04-18T11:04:28.496Z,1.95
2023-04-18T11:07:37.749Z,3.58
2023-04-18T11:10:32.022Z,4.72
2023-04-18T11:13:26.396Z,4.50
2023-04-18T11:16:33.749Z,3.50
2023-04-18T11:19:28.290Z,4.82
2023-04-18T11:22:22.444Z,3.40
2023-04-18T11:25:18.187Z,7.60
2023-04-18T11:28:16.012Z,4.25
2023-04-18T11:31:10.322Z,3.42
2023-04-18T11:34:04.565Z,4.70
2023-04-18T11:36:59.089Z,4.68
2023-04-18T11:39:55.332Z,3.10
2023-04-18T11:42:49.572Z,3.80
2023-04-18T11:45:59.705Z,2.72
2023-04-18T11:48:54.094Z,2.10
2023-04-18T11:51:49.237Z,4.18
2023-04-18T11:54:45.326Z,4.95
2023-04-18T11:57:39.556Z,6.00
2023-04-18T12:00:39.848Z,4.80
2023-04-18T12:03:34.292Z,3.63
2023-04-18T12:06:30.846Z,3.60
2023-04-18T12:09:27.284Z,1.63
2023-04-18T12:12:21.654Z,4.37
2023-04-18T12:15:18.051Z,5.38
2023-04-18T12:18:14.894Z,4.47
2023-04-18T12:21:10.006Z,3.67
2023-04-18T12:24:17.032Z,3.53
2023-04-18T12:27:13.180Z,4.45
2023-04-18T12:30:08.534Z,6.03
2023-04-18T12:33:06.490Z,2.67
2023-04-18T12:36:01.533Z,5.07
2023-04-18T12:38:55.736Z,3.53
2023-04-18T12:41:50.144Z,3.17
2023-04-18T12:44:45.372Z,3.90
2023-04-18T12:47:42.662Z,5.20
2023-04-18T12:50:37.063Z,5.20
2023-04-18T12:53:31.479Z,3.35
2023-04-18T12:56:25.862Z,7.90
2023-04-18T12:59:20.284Z,4.47
2023-04-18T13:02:14.572Z,6.18
2023-04-18T13:05:10.592Z,5.13
2023-04-18T13:08:16.380Z,5.03
2023-04-18T13:11:12.098Z,4.18
2023-04-18T13:14:06.440Z,7.68
2023-04-18T13:17:00.863Z,7.40
2023-04-18T13:19:55.111Z,4.22
2023-04-18T13:22:49.374Z,7.65
2023-04-18T13:25:43.466Z,6.40
2023-04-18T13:28:37.588Z,5.93
2023-04-18T13:31:32.706Z,5.38
2023-04-18T13:34:26.861Z,6.25
2023-04-18T13:37:21.142Z,11.98
2023-04-18T13:40:15.406Z,8.65
2023-04-18T13:43:12.046Z,5.15
2023-04-18T13:46:06.857Z,4.05
2023-04-18T13:49:01.019Z,6.22
2023-04-18T13:51:58.232Z,6.60
2023-04-18T13:54:52.439Z,14.07
2023-04-18T13:57:47.322Z,10.45
2023-04-18T14:00:41.653Z,11.20
2023-04-18T14:03:37.898Z,7.50
2023-04-18T14:09:28.944Z,8.10
2023-04-18T14:12:23.539Z,9.07
2023-04-18T14:15:18.202Z,7.55
2023-04-18T14:18:12.338Z,5.45
2023-04-18T14:21:07.516Z,8.05
2023-04-18T14:24:01.710Z,4.78
2023-04-18T14:26:56.269Z,7.65
2023-04-18T14:29:50.572Z,8.68
2023-04-18T14:32:44.758Z,8.20
2023-04-18T14:35:39.070Z,6.45
2023-04-18T14:38:33.489Z,6.30
2023-04-18T14:41:28.023Z,9.13
2023-04-18T14:44:22.514Z,9.23
2023-04-18T14:47:17.077Z,9.82
2023-04-18T14:50:16.581Z,10.52
2023-04-18T14:53:10.766Z,6.20
2023-04-18T14:56:05.071Z,4.68
2023-04-18T14:58:59.572Z,6.88
2023-04-18T15:01:53.774Z,9.30
2023-04-18T15:04:48.302Z,7.80
2023-04-18T15:07:44.151Z,13.48
2023-04-18T15:10:39.041Z,8.45
2023-04-18T15:13:33.166Z,8.98
2023-04-18T15:16:27.608Z,11.30
2023-04-18T15:19:21.869Z,7.13
2023-04-18T15:22:16.127Z,13.38
2023-04-18T15:25:10.747Z,9.90
2023-04-18T15:28:04.927Z,8.50
2023-04-18T15:30:59.164Z,8.07
2023-04-18T15:33:53.280Z,12.75
2023-04-18T15:36:50.307Z,7.97
2023-04-18T15:39:44.403Z,6.05
2023-04-18T15:42:38.598Z,6.57
2023-04-18T15:45:32.921Z,10.27
2023-04-18T15:48:27.117Z,6.50
2023-04-18T15:51:21.446Z,7.97
2023-04-18T15:54:15.944Z,7.40
2023-04-18T15:57:11.037Z,10.13
2023-04-18T16:00:07.770Z,6.10
2023-04-18T16:03:02.031Z,12.25
2023-04-18T16:05:56.557Z,7.63
2023-04-18T16:08:51.065Z,7.97
2023-04-18T16:11:45.424Z,5.13
2023-04-18T16:14:39.536Z,7.40
2023-04-18T16:17:33.998Z,8.57
2023-04-18T16:20:28.495Z,11.20
2023-04-18T16:23:22.947Z,9.48
2023-04-18T16:26:17.090Z,8.93
2023-04-18T16:29:11.343Z,7.00
2023-04-18T16:32:07.759Z,6.28
2023-04-18T16:35:01.956Z,7.97
2023-04-18T16:37:56.077Z,5.93
2023-04-18T16:40:50.329Z,7.35
2023-04-18T16:43:44.473Z,9.13
2023-04-18T16:46:38.687Z,11.40
2023-04-18T16:49:32.864Z,10.15
2023-04-18T16:52:27.218Z,7.95
2023-04-18T16:55:21.460Z,10.70
2023-04-18T16:58:15.650Z,11.90
2023-04-18T17:01:09.740Z,6.25
2023-04-18T17:04:04.470Z,6.68
2023-04-18T17:06:58.700Z,8.57
2023-04-18T17:09:53.177Z,10.77
2023-04-18T17:12:50.312Z,7.47
2023-04-18T17:15:44.496Z,9.52
2023-04-18T17:18:38.680Z,6.22
2023-04-18T17:21:33.752Z,5.68
2023-04-18T17:24:28.300Z,9.77
2023-04-18T17:27:22.470Z,7.25
2023-04-18T17:30:16.718Z,6.28
2023-04-18T17:33:12.166Z,8.00
2023-04-18T17:36:07.753Z,8.38
2023-04-18T17:39:07.620Z,8.30
2023-04-18T17:42:03.285Z,8.38
2023-04-18T17:44:57.505Z,11.05
2023-04-18T17:47:52.067Z,8.75
2023-04-18T17:50:46.422Z,8.90
2023-04-18T17:53:40.600Z,7.03
2023-04-18T17:56:35.053Z,6.43
2023-04-18T17:59:29.539Z,6.03
2023-04-18T18:02:24.823Z,9.48
2023-04-18T18:05:19.046Z,6.18
2023-04-18T18:08:13.299Z,7.97
2023-04-18T18:11:07.521Z,6.05
2023-04-18T18:14:02.134Z,7.18
2023-04-18T18:16:56.644Z,7.28
2023-04-18T18:19:50.822Z,6.22
2023-04-18T18:22:45.640Z,8.38
2023-04-18T18:25:39.972Z,5.85
2023-04-18T18:28:34.566Z,6.35
2023-04-18T18:31:28.811Z,7.60
2023-04-18T18:34:23.158Z,6.97
2023-04-18T18:37:17.610Z,6.72
2023-04-18T18:40:12.206Z,6.07
2023-04-18T18:43:08.721Z,7.45
2023-04-18T18:46:02.973Z,9.85
2023-04-18T18:48:57.639Z,8.77
2023-04-18T18:51:51.760Z,7.55
2023-04-18T18:54:45.902Z,5.47
2023-04-18T18:57:40.124Z,5.78
2023-04-18T19:00:34.449Z,10.00
2023-04-18T19:03:29.874Z,3.88
2023-04-18T19:06:24.301Z,6.95
2023-04-18T19:09:21.487Z,5.45
2023-04-18T19:12:15.678Z,7.78
2023-04-18T19:15:10.619Z,9.07
2023-04-18T19:18:04.799Z,7.78
2023-04-18T19:20:58.946Z,5.88
2023-04-18T19:23:53.083Z,10.40
2023-04-18T19:26:47.216Z,4.97
2023-04-18T19:29:41.886Z,4.30
2023-04-18T19:32:36.121Z,6.53
2023-04-18T19:35:30.371Z,4.68
2023-04-18T19:38:24.975Z,6.10
2023-04-18T19:41:19.142Z,7.45
2023-04-18T19:44:13.256Z,5.85
2023-04-18T19:47:07.864Z,4.47
2023-04-18T19:50:02.857Z,5.53
2023-04-18T19:52:57.074Z,8.18
2023-04-18T19:55:51.176Z,4.20
2023-04-18T19:58:47.955Z,6.63
2023-04-18T20:01:42.211Z,5.22
2023-04-18T20:04:37.671Z,5.40
2023-04-18T20:07:32.377Z,6.88
2023-04-18T20:10:26.628Z,3.95
2023-04-18T20:13:20.809Z,8.32
2023-04-18T20:16:15.083Z,4.18
2023-04-18T20:25:00.934Z,6.45
2023-04-18T20:27:55.061Z,5.53
2023-04-18T20:30:49.341Z,5.60
2023-04-18T20:33:43.604Z,8.70
2023-04-18T20:36:42.561Z,5.05
2023-04-18T20:39:38.127Z,4.25
2023-04-18T20:42:33.521Z,6.60
2023-04-18T20:45:28.990Z,4.53
2023-04-18T20:48:23.310Z,7.03
2023-04-18T20:51:17.472Z,8.25
2023-04-18T20:54:12.362Z,7.10
2023-04-18T20:57:06.645Z,3.30
2023-04-18T21:00:00.955Z,6.22
2023-04-18T21:02:55.534Z,4.60
2023-04-18T21:05:49.822Z,6.05
2023-04-18T21:08:43.985Z,6.93
2023-04-18T21:11:38.128Z,4.03
2023-04-18T21:14:32.448Z,3.60
2023-04-18T21:17:27.166Z,7.57
2023-04-18T21:20:21.731Z,4.75
2023-04-18T21:23:15.908Z,5.85
2023-04-18T21:26:12.220Z,5.47
2023-04-18T21:29:06.958Z,4.57
2023-04-18T21:32:01.153Z,4.55
2023-04-18T21:34:57.499Z,5.35
2023-04-18T21:37:51.676Z,5.65
2023-04-18T21:40:45.778Z,4.88
2023-04-18T21:43:39.931Z,5.80
2023-04-18T21:46:34.092Z,4.07
2023-04-18T21:49:28.374Z,7.45
2023-04-18T21:52:22.514Z,6.63
2023-04-18T21:55:16.637Z,4.63
2023-04-18T21:58:10.796Z,5.05
2023-04-18T22:01:05.353Z,4.03
2023-04-18T22:03:59.597Z,9.80
2023-04-18T22:06:56.980Z,5.50
2023-04-18T22:12:46.922Z,3.30
2023-04-18T22:15:41.089Z,6.63
2023-04-18T22:18:36.930Z,5.07
2023-04-18T22:21:32.577Z,7.90
2023-04-18T22:24:29.338Z,4.97
2023-04-18T22:27:23.468Z,8.57
2023-04-18T22:30:17.701Z,8.23
2023-04-18T22:33:11.828Z,5.03
2023-04-18T22:36:06.286Z,7.15
2023-04-18T22:39:00.451Z,5.43
2023-04-18T22:41:54.629Z,6.57
2023-04-18T22:44:48.769Z,6.15
2023-04-18T22:47:42.913Z,6.57
2023-04-18T22:50:38.958Z,5.40
2023-04-18T22:53:33.264Z,7.07
2023-04-18T22:56:27.595Z,7.65
2023-04-18T22:59:22.140Z,3.30
2023-04-18T23:02:16.776Z,3.40
2023-04-18T23:05:12.037Z,8.10
2023-04-18T23:08:07.955Z,10.20
2023-04-18T23:11:02.123Z,4.28
2023-04-18T23:13:56.279Z,7.60
2023-04-18T23:16:50.553Z,9.07
2023-04-18T23:19:46.345Z,6.50
2023-04-18T23:22:40.475Z,7.18
2023-04-18T23:25:35.079Z,7.57
2023-04-18T23:28:29.378Z,7.80
2023-04-18T23:31:24.289Z,5.60
2023-04-18T23:34:18.437Z,7.63
2023-04-18T23:37:12.647Z,5.85
2023-04-18T23:40:07.800Z,5.10
2023-04-18T23:43:02.569Z,6.55
2023-04-18T23:45:56.882Z,8.38
2023-04-18T23:48:51.036Z,9.68
2023-04-18T23:51:45.225Z,6.32
2023-04-18T23:54:39.381Z,3.95
2023-04-18T23:57:33.571Z,5.90
